Time;durP1;ratioP1;P1;durP2;ratioP2;P2;SDS_P1;SDS_P2;PMS_P1;PMS_P2;Temp;Humidity;BMP_temperature;BMP_pressure;BME280_temperature;BME280_humidity;BME280_pressure;Samples;Min_cycle;Max_cycle;Signal;HPM_P1;HPM_P2
2023/12/24 00:02:46;;;;;;;10.07;5.60;;;;;;;17.67;58.01;96850.38;10396453;28;20033;-30
2023/12/24 00:07:47;;;;;;;12.30;4.53;;;;;;;17.60;58.07;96851.19;10401041;28;20415;-30
2023/12/24 00:12:47;;;;;;;9.73;4.53;;;;;;;17.69;58.15;96855.44;10401885;28;20525;-30
2023/12/24 00:17:47;;;;;;;7.97;3.83;;;;;;;17.71;58.10;96846.16;10402656;28;20037;-30
2023/12/24 00:23:05;;;;;;;8.93;4.07;;;;;;;17.70;58.09;96841.94;10393868;28;20025;-30
2023/12/24 00:28:06;;;;;;;12.35;4.65;;;;;;;17.69;58.16;96843.66;10387105;28;20038;-30
2023/12/24 00:33:06;;;;;;;9.25;4.60;;;;;;;17.69;58.30;96836.06;10402899;28;20048;-30
2023/12/24 00:38:07;;;;;;;10.10;4.32;;;;;;;17.69;58.17;96841.13;10396303;28;20033;-30
2023/12/24 00:43:07;;;;;;;9.40;4.17;;;;;;;17.72;58.32;96840.25;10403816;28;20098;-31
2023/12/24 00:48:09;;;;;;;11.53;4.90;;;;;;;17.72;58.19;96845.31;10390916;28;20044;-30
2023/12/24 00:53:10;;;;;;;8.70;4.10;;;;;;;17.72;58.32;96840.25;10397889;28;20175;-32
2023/12/24 00:58:10;;;;;;;9.23;3.95;;;;;;;17.74;58.14;96846.19;10397927;28;20086;-30
2023/12/24 01:03:10;;;;;;;12.30;4.27;;;;;;;17.76;58.22;96849.56;10393065;28;20091;-29
2023/12/24 01:08:11;;;;;;;11.43;4.37;;;;;;;17.75;58.03;96840.28;10402864;28;20041;-30
2023/12/24 01:13:11;;;;;;;9.68;4.10;;;;;;;17.77;58.34;96839.47;10399637;28;20029;-31
2023/12/24 01:18:13;;;;;;;9.77;3.85;;;;;;;17.75;58.26;96841.13;10400531;28;20502;-30
2023/12/24 01:23:14;;;;;;;10.75;3.92;;;;;;;17.73;58.85;96826.78;10399974;28;20404;-31
2023/12/24 01:28:14;;;;;;;9.63;4.00;;;;;;;17.74;58.34;96839.44;10400344;28;20086;-31
2023/12/24 01:33:15;;;;;;;7.68;3.63;;;;;;;17.75;58.37;96858.03;10382760;28;20033;-30
2023/12/24 01:38:15;;;;;;;10.57;4.30;;;;;;;17.74;58.26;96838.59;10396309;28;20045;-30
2023/12/24 01:43:16;;;;;;;5.40;3.00;;;;;;;17.72;58.37;96825.94;10407023;28;20029;-31
2023/12/24 01:48:17;;;;;;;9.90;3.30;;;;;;;17.67;58.50;96814.09;10398154;28;20092;-30
2023/12/24 01:53:18;;;;;;;11.65;5.07;;;;;;;17.61;58.59;96806.47;10401450;28;20049;-30
2023/12/24 01:58:19;;;;;;;6.00;3.60;;;;;;;17.65;58.52;96808.19;10403698;28;20049;-31
2023/12/24 02:03:20;;;;;;;10.05;3.35;;;;;;;17.72;58.48;96825.06;10390028;28;20071;-31
2023/12/24 02:08:21;;;;;;;8.50;3.60;;;;;;;17.73;58.58;96839.44;10399439;28;20112;-31
2023/12/24 02:13:22;;;;;;;7.45;3.83;;;;;;;17.69;58.73;96836.06;10399922;28;20041;-30
2023/12/24 02:18:23;;;;;;;8.67;3.27;;;;;;;17.70;58.80;96829.28;10393084;28;20095;-31
2023/12/24 02:23:23;;;;;;;8.15;4.15;;;;;;;17.69;58.81;96836.06;10401948;28;20468;-31
2023/12/24 02:28:33;;;;;;;8.35;3.47;;;;;;;17.70;58.85;96832.69;10398564;28;20037;-30
2023/12/24 02:33:40;;;;;;;6.45;3.03;;;;;;;17.71;58.70;96833.50;10395230;28;20044;-31
2023/12/24 02:38:41;;;;;;;8.20;3.42;;;;;;;17.72;58.77;96835.19;10388298;28;20033;-32
2023/12/24 02:43:41;;;;;;;11.98;3.53;;;;;;;17.70;58.63;96826.75;10403240;28;20041;-30
2023/12/24 02:48:42;;;;;;;11.95;3.08;;;;;;;17.69;58.47;96833.53;10401671;28;20037;-30
2023/12/24 02:53:42;;;;;;;8.47;3.10;;;;;;;17.74;58.70;96843.66;10394037;28;20432;-30
2023/12/24 02:58:43;;;;;;;7.90;2.70;;;;;;;17.74;58.92;96839.44;10390421;28;20299;-30
2023/12/24 03:03:45;;;;;;;7.68;3.20;;;;;;;17.76;58.81;96847.88;10399763;28;20040;-30
2023/12/24 03:08:45;;;;;;;8.68;3.50;;;;;;;17.71;59.07;96843.63;10397275;28;20037;-30
2023/12/24 03:13:46;;;;;;;7.78;3.15;;;;;;;17.73;59.05;96841.97;10384402;28;20034;-31
2023/12/24 03:18:46;;;;;;;8.50;3.50;;;;;;;17.73;59.02;96834.38;10400794;28;20032;-32
2023/12/24 03:23:47;;;;;;;6.83;2.67;;;;;;;17.71;58.99;96803.97;10397567;28;20036;-30
2023/12/24 03:28:48;;;;;;;9.90;3.30;;;;;;;17.73;58.89;96807.34;10395424;28;20034;-31
2023/12/24 03:33:48;;;;;;;6.85;3.47;;;;;;;17.74;58.84;96818.34;10389074;28;20488;-31
2023/12/24 03:38:49;;;;;;;5.70;3.10;;;;;;;17.74;58.94;96803.16;10396040;28;20033;-30
2023/12/24 03:43:50;;;;;;;4.32;2.42;;;;;;;17.72;58.82;96805.66;10406429;28;20025;-31
2023/12/24 03:48:50;;;;;;;5.13;2.90;;;;;;;17.71;58.89;96787.94;10404663;28;20040;-31
2023/12/24 03:53:51;;;;;;;5.57;3.23;;;;;;;17.74;59.00;96777.84;10405450;28;20034;-30
2023/12/24 03:58:52;;;;;;;5.30;2.75;;;;;;;17.71;59.29;96783.72;10404672;28;20041;-31
2023/12/24 04:03:52;;;;;;;4.93;2.93;;;;;;;17.74;58.96;96772.78;10399954;28;20025;-30
2023/12/24 04:08:53;;;;;;;7.53;2.60;;;;;;;17.72;58.96;96757.56;10406957;28;20025;-31
2023/12/24 04:13:53;;;;;;;6.22;2.92;;;;;;;17.66;58.84;96733.91;10399956;28;20519;-31
2023/12/24 04:18:54;;;;;;;6.63;3.00;;;;;;;17.68;59.32;96727.16;10398594;28;20519;-32
2023/12/24 04:23:55;;;;;;;4.85;2.42;;;;;;;17.72;58.99;96724.66;10406364;28;20021;-30
2023/12/24 04:28:56;;;;;;;4.30;2.10;;;;;;;17.71;59.01;96712.81;10400499;28;20403;-30
2023/12/24 04:33:56;;;;;;;5.82;3.10;;;;;;;17.70;59.11;96725.47;10400869;28;20103;-30
2023/12/24 04:38:57;;;;;;;4.70;2.58;;;;;;;17.75;59.08;96718.75;10404628;28;20084;-31
2023/12/24 04:43:57;;;;;;;4.57;2.30;;;;;;;17.74;58.94;96727.19;10398483;28;20025;-32
2023/12/24 04:48:58;;;;;;;5.17;2.43;;;;;;;17.77;58.71;96717.91;10402129;28;20493;-30
2023/12/24 04:53:58;;;;;;;5.47;2.38;;;;;;;17.74;59.02;96719.59;10431568;28;20361;-30
2023/12/24 04:58:59;;;;;;;4.63;2.63;;;;;;;17.75;59.20;96733.94;10401822;28;20081;-32
2023/12/24 05:04:01;;;;;;;7.28;2.70;;;;;;;17.72;59.22;96716.19;10402622;28;20311;-31
2023/12/24 05:09:01;;;;;;;6.33;2.17;;;;;;;17.72;59.35;96728.84;10402689;28;20579;-31
2023/12/24 05:14:02;;;;;;;4.50;2.13;;;;;;;17.69;59.82;96734.78;10396886;28;20292;-30
2023/12/24 05:19:02;;;;;;;6.07;2.33;;;;;;;17.68;59.53;96730.53;10401719;28;20057;-30
2023/12/24 05:24:03;;;;;;;5.93;2.23;;;;;;;17.72;59.24;96738.97;10393117;28;20137;-32
2023/12/24 05:29:03;;;;;;;6.72;2.60;;;;;;;17.70;59.36;96745.72;10402231;28;20037;-31
2023/12/24 05:34:03;;;;;;;5.15;2.38;;;;;;;17.68;59.48;96747.41;10398775;28;20049;-30
2023/12/24 05:39:05;;;;;;;4.97;2.10;;;;;;;17.62;59.03;96728.00;10405592;28;20041;-30
2023/12/24 05:44:06;;;;;;;4.28;2.30;;;;;;;17.70;59.64;96750.78;10405773;28;20128;-30
2023/12/24 05:49:07;;;;;;;3.10;1.80;;;;;;;17.70;59.46;96771.03;10397056;28;20037;-30
2023/12/24 05:54:07;;;;;;;3.30;1.85;;;;;;;17.86;57.71;96772.78;10398750;28;20160;-30
2023/12/24 05:59:08;;;;;;;7.30;1.97;;;;;;;17.79;58.97;96760.94;10397429;28;20038;-30
2023/12/24 06:04:08;;;;;;;5.78;2.45;;;;;;;17.89;58.75;96770.25;10398412;28;20224;-32
2023/12/24 06:09:09;;;;;;;5.13;2.23;;;;;;;17.91;58.57;96769.44;10401365;28;20060;-30
2023/12/24 06:14:09;;;;;;;8.00;2.03;;;;;;;17.94;58.47;96741.59;10398911;28;20438;-30
2023/12/24 06:19:09;;;;;;;5.57;1.80;;;;;;;17.84;58.65;96718.78;10402365;28;20079;-29
2023/12/24 06:24:10;;;;;;;7.97;2.33;;;;;;;17.93;58.35;96728.91;10399276;28;20636;-31
2023/12/24 06:29:10;;;;;;;6.60;2.20;;;;;;;17.95;58.26;96733.16;10398107;28;20482;-30
2023/12/24 06:34:11;;;;;;;4.10;1.90;;;;;;;17.98;57.99;96739.91;10391108;28;20143;-31
2023/12/24 06:39:12;;;;;;;2.78;1.50;;;;;;;18.00;57.41;96720.50;10400153;28;20033;-30
2023/12/24 06:44:12;;;;;;;3.75;2.13;;;;;;;18.09;57.84;96730.63;10389606;28;20038;-30
2023/12/24 06:49:13;;;;;;;3.77;1.53;;;;;;;18.17;57.48;96696.03;10394495;28;20039;-30
2023/12/24 06:54:13;;;;;;;6.17;2.00;;;;;;;18.18;57.45;96700.25;10391490;28;20993;-30
2023/12/24 06:59:14;;;;;;;3.40;2.37;;;;;;;18.24;57.04;96710.41;10399815;28;20534;-31
2023/12/24 07:04:14;;;;;;;5.53;2.20;;;;;;;18.25;56.96;96685.03;10400301;28;20034;-30
2023/12/24 07:09:14;;;;;;;9.07;3.67;;;;;;;18.27;56.61;96690.97;10390626;28;20100;-31
2023/12/24 07:14:15;;;;;;;4.40;2.53;;;;;;;18.22;57.12;96687.59;10401967;28;20400;-30
2023/12/24 07:19:15;;;;;;;4.27;2.10;;;;;;;18.19;57.47;96701.94;10403605;28;20038;-30
2023/12/24 07:24:15;;;;;;;4.37;2.00;;;;;;;18.19;57.55;96701.94;10396964;28;20025;-31
2023/12/24 07:29:16;;;;;;;7.10;1.60;;;;;;;18.21;57.23;96692.63;10402423;28;20036;-31
2023/12/24 07:34:16;;;;;;;3.33;1.80;;;;;;;18.27;56.63;96695.19;10395493;28;20029;-31
2023/12/24 07:39:16;;;;;;;8.45;1.88;;;;;;;18.26;56.77;96703.63;10399362;28;20041;-30
2023/12/24 07:44:17;;;;;;;5.90;1.90;;;;;;;18.29;56.74;96693.50;10396081;28;20041;-31
2023/12/24 07:49:17;;;;;;;5.95;1.95;;;;;;;18.23;56.99;96713.75;10395775;28;20060;-32
2023/12/24 07:54:18;;;;;;;2.72;1.60;;;;;;;18.21;57.16;96690.09;10394565;28;20041;-30
2023/12/24 07:59:19;;;;;;;3.80;1.67;;;;;;;18.26;57.10;96694.31;10390173;28;20392;-31
2023/12/24 08:04:19;;;;;;;3.85;1.60;;;;;;;18.22;57.28;96692.66;10399323;28;20048;-30
2023/12/24 08:09:19;;;;;;;4.73;1.43;;;;;;;18.19;57.02;96694.34;10395811;28;20137;-32
2023/12/24 08:14:20;;;;;;;3.10;1.60;;;;;;;18.21;56.91;96695.16;10394977;28;20080;-30
2023/12/24 08:19:20;;;;;;;4.23;1.60;;;;;;;18.22;56.98;96695.19;10395312;28;20026;-30
2023/12/24 08:24:21;;;;;;;6.07;1.67;;;;;;;18.18;57.37;96685.03;10398786;28;20775;-31
2023/12/24 08:29:21;;;;;;;4.87;2.27;;;;;;;18.34;56.76;96686.78;10406344;28;20458;-31
2023/12/24 08:34:21;;;;;;;4.33;1.87;;;;;;;18.45;56.95;96685.94;10402680;28;20033;-30
2023/12/24 08:39:22;;;;;;;3.53;1.97;;;;;;;18.58;56.28;96691.84;10403198;28;20103;-30
2023/12/24 08:44:22;;;;;;;6.47;2.57;;;;;;;18.69;55.82;96692.66;10403738;28;20387;-30
2023/12/24 08:49:23;;;;;;;6.67;3.03;;;;;;;18.71;56.77;96694.34;10407367;28;20419;-30
2023/12/24 08:54:24;;;;;;;9.50;3.63;;;;;;;18.75;55.58;96679.97;10401012;28;20069;-31
2023/12/24 08:59:25;;;;;;;9.38;3.67;;;;;;;18.80;55.50;96680.78;10400196;28;20059;-29
2023/12/24 09:04:25;;;;;;;8.27;3.37;;;;;;;18.71;55.66;96674.06;10403820;28;20033;-30
2023/12/24 09:09:26;;;;;;;14.63;5.40;;;;;;;18.68;55.60;96665.63;10400774;28;20303;-28
2023/12/24 09:14:26;;;;;;;9.68;3.90;;;;;;;18.75;55.67;96664.75;10401176;28;20044;-29
2023/12/24 09:19:27;;;;;;;12.60;4.55;;;;;;;19.72;54.99;96666.94;10399619;28;20501;-29
2023/12/24 09:24:27;;;;;;;6.70;3.55;;;;;;;19.15;55.08;96677.31;10389494;28;20369;-29
2023/12/24 09:29:28;;;;;;;7.40;3.42;;;;;;;18.81;55.52;96660.50;10394298;28;20500;-29
2023/12/24 09:34:28;;;;;;;11.75;4.05;;;;;;;18.82;55.31;96676.59;10399409;28;20559;-29
2023/12/24 09:39:29;;;;;;;13.57;5.30;;;;;;;18.82;54.46;96701.97;10397774;28;20041;-31
2023/12/24 09:44:29;;;;;;;16.20;7.10;;;;;;;18.76;54.65;96712.94;10400346;28;20030;-31
2023/12/24 09:49:30;;;;;;;16.02;6.88;;;;;;;18.81;54.72;96715.47;10401837;28;20778;-31
2023/12/24 09:54:31;;;;;;;16.40;6.80;;;;;;;18.82;54.99;96725.59;10397351;28;20086;-31
2023/12/24 09:59:32;;;;;;;18.75;8.13;;;;;;;18.86;54.97;96744.22;10397197;28;20295;-30
2023/12/24 10:04:32;;;;;;;19.70;7.82;;;;;;;18.86;54.91;96734.91;10401398;28;20033;-30
2023/12/24 10:09:49;;;;;;;24.93;10.20;;;;;;;18.93;54.99;96720.53;10395864;28;20068;-30
2023/12/24 10:14:58;;;;;;;25.45;10.82;;;;;;;18.92;54.92;96711.22;10396847;28;20770;-30
2023/12/24 10:20:00;;;;;;;24.45;9.60;;;;;;;18.97;55.38;96729.81;10400374;28;20406;-31
2023/12/24 10:25:02;;;;;;;17.95;9.77;;;;;;;18.98;55.07;96704.44;10399808;28;20025;-30
2023/12/24 10:30:13;;;;;;;23.45;9.60;;;;;;;19.00;55.13;96722.22;10421737;28;20116;-31
2023/12/24 10:35:22;;;;;;;19.83;9.35;;;;;;;18.91;55.36;96701.94;10397352;28;20064;-30
2023/12/24 10:40:22;;;;;;;21.83;8.45;;;;;;;19.07;56.53;96724.72;10411567;28;20120;-31
2023/12/24 10:45:22;;;;;;;24.13;9.00;;;;;;;19.08;55.49;96712.88;10405891;28;20025;-31
2023/12/24 10:50:23;;;;;;;20.67;8.60;;;;;;;19.09;55.60;96707.78;10407668;28;20032;-31
2023/12/24 10:55:25;;;;;;;19.45;8.95;;;;;;;19.08;55.87;96697.66;10393818;28;20033;-31
2023/12/24 11:00:27;;;;;;;15.95;7.65;;;;;;;19.08;55.73;96680.72;10395162;28;20685;-31
2023/12/24 11:05:43;;;;;;;21.02;8.23;;;;;;;19.02;56.09;96665.50;10397673;28;20032;-30
2023/12/24 11:10:44;;;;;;;21.33;8.35;;;;;;;19.13;56.68;96688.31;10390864;28;20048;-30
2023/12/24 11:15:45;;;;;;;18.88;8.43;;;;;;;19.12;56.80;96687.50;10392336;28;20034;-31
2023/12/24 11:20:45;;;;;;;22.23;8.07;;;;;;;19.07;58.05;96685.81;10394977;28;20106;-29
2023/12/24 11:25:47;;;;;;;18.80;7.07;;;;;;;18.97;55.79;96656.22;10388956;28;20022;-30
2023/12/24 11:30:50;;;;;;;23.27;5.93;;;;;;;19.11;55.96;96665.50;10400607;28;20030;-30
2023/12/24 11:35:52;;;;;;;18.98;7.10;;;;;;;19.14;56.74;96649.41;10400965;28;20458;-30
2023/12/24 11:41:03;;;;;;;24.92;7.45;;;;;;;19.07;56.69;96623.22;10391380;28;20053;-31
2023/12/24 11:46:04;;;;;;;21.15;7.68;;;;;;;19.12;57.27;96616.44;10394291;28;20475;-31
2023/12/24 11:51:11;;;;;;;36.10;9.65;;;;;;;19.19;57.04;96617.28;10403933;28;20045;-31
2023/12/24 11:56:16;;;;;;;25.02;9.05;;;;;;;19.19;57.08;96599.53;10394586;28;20121;-31
2023/12/24 12:01:24;;;;;;;36.25;9.68;;;;;;;19.22;56.27;96597.81;10385256;28;20025;-31
2023/12/24 12:06:26;;;;;;;35.33;8.95;;;;;;;19.21;56.64;96580.91;10394570;28;20033;-31
2023/12/24 12:11:26;;;;;;;26.08;9.20;;;;;;;19.21;56.76;96569.91;10400961;28;20506;-30
2023/12/24 12:16:26;;;;;;;27.10;10.20;;;;;;;19.20;56.63;96565.69;10399621;28;20034;-31
2023/12/24 12:21:27;;;;;;;29.38;8.57;;;;;;;18.98;55.93;96576.72;10396725;28;20291;-30
2023/12/24 12:26:29;;;;;;;23.43;9.50;;;;;;;19.15;56.57;96569.88;10407099;28;20033;-30
2023/12/24 12:31:30;;;;;;;28.95;8.20;;;;;;;19.16;56.51;96558.91;10400804;28;20033;-30
2023/12/24 12:36:30;;;;;;;23.57;8.03;;;;;;;19.18;56.87;96574.97;10408022;28;20034;-30
2023/12/24 12:41:30;;;;;;;21.97;8.87;;;;;;;19.14;57.17;96574.13;10403252;28;20037;-30
2023/12/24 12:46:32;;;;;;;32.17;10.43;;;;;;;19.15;57.97;96580.91;10401938;28;20099;-31
2023/12/24 12:51:32;;;;;;;20.55;7.40;;;;;;;19.13;56.89;96577.53;10399798;28;21654;-31
2023/12/24 12:56:45;;;;;;;30.23;8.82;;;;;;;19.21;57.42;96580.03;10396065;28;20029;-31
2023/12/24 13:01:46;;;;;;;26.88;7.50;;;;;;;19.21;57.18;96575.81;10402584;28;20030;-30
2023/12/24 13:06:54;;;;;;;26.50;8.35;;;;;;;19.24;57.31;96597.81;10407282;28;20037;-31
2023/12/24 13:12:07;;;;;;;23.38;8.00;;;;;;;19.23;57.49;96585.94;10404311;28;20052;-32
2023/12/24 13:17:11;;;;;;;28.73;10.07;;;;;;;19.27;58.15;96585.09;10398570;28;20045;-30
2023/12/24 13:22:11;;;;;;;17.98;7.20;;;;;;;19.33;58.26;96585.06;10407185;28;20661;-31
2023/12/24 13:27:12;;;;;;;30.50;9.20;;;;;;;19.20;57.98;96575.81;10402654;28;20059;-31
2023/12/24 13:32:12;;;;;;;15.70;5.80;;;;;;;19.19;56.93;96591.91;10404487;28;20029;-31
2023/12/24 13:37:13;;;;;;;18.45;7.20;;;;;;;19.27;57.83;96590.19;10406901;28;20052;-30
2023/12/24 13:42:13;;;;;;;24.85;7.05;;;;;;;19.31;57.30;96595.22;10401212;28;20047;-31
2023/12/24 13:47:16;;;;;;;19.37;6.43;;;;;;;19.29;58.01;96594.41;10401724;28;20091;-30
2023/12/24 13:52:17;;;;;;;20.15;7.38;;;;;;;19.31;57.73;96599.44;10401455;28;20292;-32
2023/12/24 13:57:17;;;;;;;13.33;5.40;;;;;;;19.32;57.76;96593.50;10405679;28;20033;-31
2023/12/24 14:02:18;;;;;;;25.27;5.60;;;;;;;19.31;57.83;96591.84;10402158;28;20117;-32
2023/12/24 14:07:18;;;;;;;16.70;6.22;;;;;;;19.27;57.67;96585.09;10405189;28;20044;-30
2023/12/24 14:12:19;;;;;;;15.98;6.28;;;;;;;19.22;57.66;96590.19;10414665;28;20029;-30
2023/12/24 14:17:19;;;;;;;18.75;6.20;;;;;;;19.29;57.83;96575.78;10406037;28;20038;-31
2023/12/24 14:22:21;;;;;;;16.10;6.63;;;;;;;19.28;57.15;96574.09;10401011;28;20049;-30
2023/12/24 14:27:21;;;;;;;21.95;6.05;;;;;;;19.33;57.28;96596.06;10415790;28;20045;-31
2023/12/24 14:32:22;;;;;;;17.30;5.93;;;;;;;19.35;57.79;96583.38;10412749;28;20033;-30
2023/12/24 14:37:22;;;;;;;12.43;5.15;;;;;;;19.40;57.42;96592.63;10415780;28;20098;-31
2023/12/24 14:42:23;;;;;;;20.57;6.00;;;;;;;19.44;57.89;96596.00;10415091;28;20025;-30
2023/12/24 14:47:29;;;;;;;16.20;5.70;;;;;;;19.45;57.56;96590.06;10409124;28;20032;-32
2023/12/24 14:52:29;;;;;;;15.75;5.15;;;;;;;19.44;57.54;96601.91;10420942;28;20044;-31
2023/12/24 14:57:30;;;;;;;14.57;5.75;;;;;;;19.44;57.44;96614.59;10410255;28;20415;-30
2023/12/24 15:02:30;;;;;;;17.97;6.73;;;;;;;19.44;57.60;96613.78;10412942;28;20037;-30
2023/12/24 15:07:33;;;;;;;20.83;6.77;;;;;;;19.44;58.57;96623.94;10406871;28;20366;-30
2023/12/24 15:12:33;;;;;;;20.58;7.70;;;;;;;19.41;57.68;96613.81;10412099;28;20033;-30
2023/12/24 15:17:34;;;;;;;20.35;9.02;;;;;;;19.40;58.15;96622.25;10408237;28;20033;-32
2023/12/24 15:22:35;;;;;;;21.60;8.82;;;;;;;19.43;58.30;96623.06;10405622;28;20037;-30
2023/12/24 15:27:35;;;;;;;25.50;8.33;;;;;;;19.38;58.61;96594.34;10406877;28;20041;-31
2023/12/24 15:32:35;;;;;;;19.20;7.33;;;;;;;19.44;58.30;96593.47;10402406;28;20302;-31
2023/12/24 15:37:36;;;;;;;23.27;8.10;;;;;;;19.54;59.08;96590.00;10409669;28;20292;-30
2023/12/24 15:42:36;;;;;;;27.53;9.33;;;;;;;19.59;60.43;96584.03;10410653;28;20521;-30
2023/12/24 15:47:37;;;;;;;36.13;11.53;;;;;;;19.63;59.81;96582.34;10406056;28;20291;-30
2023/12/24 15:52:37;;;;;;;50.03;14.70;;;;;;;19.58;60.41;96581.53;10404925;28;20835;-30
2023/12/24 15:57:38;;;;;;;32.13;14.07;;;;;;;19.63;61.57;96592.50;10408888;28;20033;-30
2023/12/24 16:02:41;;;;;;;52.50;19.13;;;;;;;19.67;61.23;96586.56;10404793;28;20288;-30
2023/12/24 16:07:43;;;;;;;62.72;26.65;;;;;;;19.62;62.35;96600.97;10406655;28;20589;-30
2023/12/24 16:12:44;;;;;;;66.15;27.20;;;;;;;19.69;61.34;96610.25;10409904;28;20080;-30
2023/12/24 16:17:44;;;;;;;67.27;29.40;;;;;;;19.70;62.57;96582.31;10404894;28;20100;-32
2023/12/24 16:22:45;;;;;;;66.90;30.30;;;;;;;19.76;62.07;96583.94;10402905;28;20721;-29
2023/12/24 16:27:45;;;;;;;69.83;32.23;;;;;;;19.74;62.63;96585.63;10408583;28;20033;-30
2023/12/24 16:32:45;;;;;;;61.10;27.60;;;;;;;19.78;61.94;96600.88;10406529;28;20029;-31
2023/12/24 16:37:46;;;;;;;59.87;26.83;;;;;;;19.76;61.86;96594.09;10406740;28;20302;-30
2023/12/24 16:42:47;;;;;;;56.33;24.50;;;;;;;19.73;61.56;96601.72;10407677;28;20380;-31
2023/12/24 16:47:47;;;;;;;55.70;24.02;;;;;;;19.73;61.03;96601.72;10403776;28;20391;-31
2023/12/24 16:52:50;;;;;;;49.87;22.77;;;;;;;19.60;61.21;96569.66;10407114;28;20052;-30
2023/12/24 16:57:50;;;;;;;48.42;25.20;;;;;;;19.69;61.56;96580.59;10408666;28;20345;-31
2023/12/24 17:02:51;;;;;;;52.33;22.07;;;;;;;19.72;61.03;96589.88;10402757;28;20147;-30
2023/12/24 17:07:51;;;;;;;40.77;20.10;;;;;;;19.72;60.32;96592.44;10406109;28;20432;-30
2023/12/24 17:12:51;;;;;;;44.63;21.43;;;;;;;19.74;60.45;96598.34;10407363;28;20033;-30
2023/12/24 17:17:52;;;;;;;45.43;20.50;;;;;;;19.74;60.38;96598.34;10403414;28;20037;-32
2023/12/24 17:22:53;;;;;;;35.78;19.10;;;;;;;19.71;60.22;96609.38;10402389;28;20052;-30
2023/12/24 17:27:53;;;;;;;34.23;16.87;;;;;;;19.70;60.89;96607.69;10407375;28;20045;-30
2023/12/24 17:32:54;;;;;;;41.53;17.03;;;;;;;19.74;60.38;96613.56;10397020;28;20045;-31
2023/12/24 17:37:54;;;;;;;35.90;15.43;;;;;;;19.75;60.40;96597.50;10400723;28;20501;-32
2023/12/24 17:42:55;;;;;;;29.90;13.60;;;;;;;19.77;60.40;96605.94;10406470;28;20047;-31
2023/12/24 17:47:55;;;;;;;32.30;13.63;;;;;;;19.77;60.14;96603.41;10401310;28;20026;-30
2023/12/24 17:52:56;;;;;;;38.70;16.67;;;;;;;19.78;60.25;96605.09;10394281;28;20289;-30
2023/12/24 17:57:57;;;;;;;33.33;14.10;;;;;;;19.71;59.84;96601.75;10405846;28;20037;-30
2023/12/24 18:02:57;;;;;;;25.75;14.02;;;;;;;19.74;58.99;96618.66;10392765;28;20029;-31
2023/12/24 18:07:57;;;;;;;33.10;14.97;;;;;;;19.73;58.99;96612.75;10383720;28;20025;-30
2023/12/24 18:12:58;;;;;;;33.03;13.40;;;;;;;19.76;59.82;96609.34;10393765;28;20041;-30
2023/12/24 18:17:58;;;;;;;37.45;14.30;;;;;;;19.78;58.54;96613.56;10402207;28;20312;-30
2023/12/24 18:22:59;;;;;;;39.00;14.98;;;;;;;19.82;59.13;96625.38;10399101;28;20134;-31
2023/12/24 18:27:59;;;;;;;34.87;13.67;;;;;;;19.80;58.74;96618.63;10404381;28;20440;-30
2023/12/24 18:33:00;;;;;;;33.13;12.93;;;;;;;19.81;58.59;96630.47;10395601;28;20049;-30
2023/12/24 18:38:03;;;;;;;34.38;14.15;;;;;;;19.80;58.54;96616.09;10404150;28;20064;-31
2023/12/24 18:43:05;;;;;;;31.52;13.85;;;;;;;19.81;58.67;96617.75;10398576;28;20407;-32
2023/12/24 18:48:06;;;;;;;30.45;14.30;;;;;;;19.78;58.76;96616.13;10400608;28;20037;-29
2023/12/24 18:53:06;;;;;;;33.97;13.40;;;;;;;19.81;58.47;96615.22;10403094;28;20034;-29
2023/12/24 18:58:06;;;;;;;31.67;13.02;;;;;;;19.83;57.98;96611.00;10395411;28;20041;-30
2023/12/24 19:03:07;;;;;;;30.93;14.97;;;;;;;19.84;58.53;96594.91;10395358;28;20557;-31
2023/12/24 19:08:09;;;;;;;32.63;13.97;;;;;;;19.83;60.30;96598.28;10397336;28;20029;-30
2023/12/24 19:13:10;;;;;;;39.75;18.80;;;;;;;19.89;59.89;96601.63;10403809;28;20296;-31
2023/12/24 19:18:10;;;;;;;68.57;32.47;;;;;;;19.92;62.25;96603.31;10399413;28;20414;-31
2023/12/24 19:23:11;;;;;;;68.72;28.23;;;;;;;19.91;60.89;96591.47;10398514;28;20498;-30
2023/12/24 19:28:11;;;;;;;64.00;31.77;;;;;;;19.98;60.76;96609.19;10402189;28;20045;-33
2023/12/24 19:33:12;;;;;;;55.40;27.30;;;;;;;19.82;58.50;96606.75;10399247;28;20677;-30
2023/12/24 19:38:12;;;;;;;56.40;27.50;;;;;;;19.89;59.36;96628.72;10398694;28;20038;-30
2023/12/24 19:43:12;;;;;;;54.80;29.70;;;;;;;19.90;59.80;96648.19;10398127;28;20032;-31
2023/12/24 19:48:14;;;;;;;58.90;28.40;;;;;;;19.83;59.32;96638.94;10389901;28;20033;-30
2023/12/24 19:53:14;;;;;;;57.75;26.23;;;;;;;19.91;59.08;96637.19;10387709;28;20361;-29
2023/12/24 19:58:15;;;;;;;45.63;23.20;;;;;;;19.93;58.89;96651.56;10395581;28;20041;-30
2023/12/24 20:03:15;;;;;;;41.83;23.27;;;;;;;19.98;59.09;96659.16;10390302;28;20346;-30
2023/12/24 20:08:15;;;;;;;40.57;21.60;;;;;;;19.96;59.01;96651.56;10398585;28;20045;-30
2023/12/24 20:13:16;;;;;;;36.80;20.87;;;;;;;19.97;58.71;96665.09;10402309;28;20048;-32
2023/12/24 20:18:16;;;;;;;42.92;20.25;;;;;;;19.96;58.20;96658.31;10398525;28;20380;-30
2023/12/24 20:23:17;;;;;;;42.07;22.27;;;;;;;19.96;59.20;96671.88;10400973;28;20041;-31
2023/12/24 20:28:17;;;;;;;44.73;22.13;;;;;;;19.95;59.12;96664.25;10407946;28;20047;-31
2023/12/24 20:33:17;;;;;;;41.97;21.97;;;;;;;19.90;58.43;96650.72;10391683;28;20292;-30
2023/12/24 20:38:18;;;;;;;38.53;18.75;;;;;;;19.92;58.78;96642.25;10407932;28;20037;-30
2023/12/24 20:43:21;;;;;;;36.10;19.48;;;;;;;19.95;58.49;96666.81;10400664;28;20029;-30
2023/12/24 20:48:21;;;;;;;39.70;18.75;;;;;;;19.95;58.66;96674.44;10395770;28;20037;-30
2023/12/24 20:53:22;;;;;;;46.35;21.17;;;;;;;19.99;58.68;96676.06;10407216;28;20045;-32
2023/12/24 20:58:23;;;;;;;38.65;19.08;;;;;;;20.02;59.49;96681.16;10397023;28;20030;-30
2023/12/24 21:03:23;;;;;;;33.25;18.45;;;;;;;20.02;59.08;96671.81;10406227;28;20040;-30
2023/12/24 21:08:24;;;;;;;37.67;18.25;;;;;;;20.03;59.55;96672.69;10401303;28;20503;-29
2023/12/24 21:13:24;;;;;;;30.63;16.33;;;;;;;20.01;59.56;96671.84;10407337;28;20042;-30
2023/12/24 21:18:25;;;;;;;37.15;16.95;;;;;;;20.07;59.34;96679.44;10402968;28;20300;-30
2023/12/24 21:23:25;;;;;;;44.63;18.73;;;;;;;20.05;59.48;96676.06;10400396;28;20401;-30
2023/12/24 21:28:26;;;;;;;49.03;18.85;;;;;;;20.11;60.40;96676.88;10398316;28;20117;-30
2023/12/24 21:33:26;;;;;;;55.15;13.18;;;;;;;20.06;55.22;96665.06;10405956;28;20404;-30
2023/12/24 21:38:29;;;;;;;37.63;14.03;;;;;;;20.13;57.28;96659.06;10396906;28;20041;-30
2023/12/24 21:43:29;;;;;;;43.97;14.80;;;;;;;20.05;57.94;96653.19;10403098;28;20376;-30
2023/12/24 21:48:30;;;;;;;43.72;14.20;;;;;;;20.11;57.97;96655.72;10406496;28;20045;-30
2023/12/24 21:53:30;;;;;;;34.33;13.23;;;;;;;20.09;57.51;96657.44;10395891;28;20396;-30
2023/12/24 21:58:30;;;;;;;37.00;13.23;;;;;;;20.10;57.42;96662.47;10396482;28;20100;-31
2023/12/24 22:03:31;;;;;;;29.40;13.07;;;;;;;20.08;57.30;96661.66;10397165;28;20280;-30
2023/12/24 22:08:31;;;;;;;29.48;13.43;;;;;;;20.09;57.07;96652.34;10403471;28;20045;-30
2023/12/24 22:13:36;;;;;;;31.33;13.18;;;;;;;20.08;56.88;96643.03;10397831;28;20124;-31
2023/12/24 22:18:36;;;;;;;32.70;13.30;;;;;;;20.06;56.86;96645.56;10392875;28;20116;-30
2023/12/24 22:23:39;;;;;;;25.57;12.20;;;;;;;20.09;56.49;96665.06;10423246;28;20554;-31
2023/12/24 22:28:40;;;;;;;26.00;12.23;;;;;;;20.09;56.52;96659.97;10403638;28;20041;-31
2023/12/24 22:33:40;;;;;;;26.38;13.02;;;;;;;20.09;57.02;96655.72;10397919;28;20455;-30
2023/12/24 22:38:40;;;;;;;25.63;12.50;;;;;;;20.11;57.21;96650.63;10397982;28;20048;-31
2023/12/24 22:43:41;;;;;;;26.23;12.83;;;;;;;20.05;56.42;96656.59;10400064;28;20172;-31
2023/12/24 22:48:41;;;;;;;25.30;14.63;;;;;;;20.01;56.50;96647.25;10403406;28;20578;-31
2023/12/24 22:53:42;;;;;;;20.33;11.33;;;;;;;19.95;57.33;96638.84;10400608;28;20416;-31
2023/12/24 22:58:44;;;;;;;25.25;12.82;;;;;;;19.94;57.69;96655.78;10405589;28;20055;-30
2023/12/24 23:03:45;;;;;;;25.80;12.07;;;;;;;19.94;58.02;96637.16;10397068;28;20027;-30